Time;durP1;ratioP1;P1;durP2;ratioP2;P2;SDS_P1;SDS_P2;PMS_P1;PMS_P2;Temp;Humidity;BMP_temperature;BMP_pressure;BME280_temperature;BME280_humidity;BME280_pressure;Samples;Min_cycle;Max_cycle;Signal;HPM_P1;HPM_P2
2023/08/05 00:02:12;;;;;;;16.38;11.77;;;;;;;13.67;95.87;100593.06;5012315;28;20152;-95
2023/08/05 00:04:38;;;;;;;18.10;11.52;;;;;;;13.60;96.11;100579.66;5012874;28;20037;-94
2023/08/05 00:07:03;;;;;;;19.77;12.05;;;;;;;13.61;96.47;100580.50;5011537;28;20468;-94
2023/08/05 00:09:28;;;;;;;18.70;11.38;;;;;;;13.65;96.53;100575.00;5013026;28;20030;-93
2023/08/05 00:11:54;;;;;;;13.82;10.30;;;;;;;13.60;97.44;100561.50;5012922;28;20029;-94
2023/08/05 00:14:19;;;;;;;14.85;10.95;;;;;;;13.58;97.80;100547.84;5012745;28;20038;-94
2023/08/05 00:16:44;;;;;;;16.77;11.00;;;;;;;13.62;97.47;100544.09;5013395;28;20022;-94
2023/08/05 00:19:10;;;;;;;15.68;11.15;;;;;;;13.56;97.52;100539.34;5015680;28;20030;-94
2023/08/05 00:21:35;;;;;;;11.00;9.50;;;;;;;13.50;98.43;100531.97;5015585;28;20025;-94
2023/08/05 00:24:01;;;;;;;15.85;11.15;;;;;;;13.57;99.28;100514.22;5016532;28;20026;-94
2023/08/05 00:26:26;;;;;;;13.32;9.73;;;;;;;13.60;98.96;100517.41;5016170;28;20057;-93
2023/08/05 00:28:51;;;;;;;16.00;10.57;;;;;;;13.59;99.43;100512.34;5016165;28;20026;-95
2023/08/05 00:31:16;;;;;;;14.18;10.18;;;;;;;13.58;99.51;100508.94;5014843;28;20030;-94
2023/08/05 00:33:42;;;;;;;18.15;11.95;;;;;;;13.56;100.00;100508.22;5016001;28;20487;-94
2023/08/05 00:36:07;;;;;;;14.55;10.65;;;;;;;13.46;100.00;100497.63;5014463;28;20388;-94
2023/08/05 00:38:33;;;;;;;14.45;10.45;;;;;;;13.48;100.00;100494.94;5014944;28;20034;-94
2023/08/05 00:40:58;;;;;;;17.15;10.82;;;;;;;13.44;100.00;100488.31;5014613;28;20476;-94
2023/08/05 00:43:23;;;;;;;17.23;10.98;;;;;;;13.53;100.00;100492.00;5014539;28;20060;-94
2023/08/05 00:45:49;;;;;;;17.67;10.55;;;;;;;13.30;100.00;100485.81;5016004;28;20453;-94
2023/08/05 00:48:15;;;;;;;15.52;11.05;;;;;;;13.17;100.00;100486.63;5015662;28;20026;-93
2023/08/05 00:50:40;;;;;;;15.95;10.65;;;;;;;13.26;100.00;100477.38;5014315;28;20120;-94
2023/08/05 00:53:06;;;;;;;14.30;10.82;;;;;;;13.31;100.00;100466.75;5015506;28;20033;-94
2023/08/05 00:55:31;;;;;;;19.40;10.75;;;;;;;13.21;100.00;100462.16;5014536;28;20105;-94
2023/08/05 00:57:57;;;;;;;17.58;10.85;;;;;;;13.36;100.00;100459.47;5014060;28;20033;-93
2023/08/05 01:00:22;;;;;;;19.88;11.50;;;;;;;13.18;100.00;100456.34;5015292;28;20022;-94
2023/08/05 01:02:47;;;;;;;13.73;10.80;;;;;;;13.23;100.00;100455.09;5014232;28;20395;-93
2023/08/05 01:05:13;;;;;;;17.80;11.95;;;;;;;13.23;100.00;100451.69;5013707;28;20017;-95
2023/08/05 01:07:39;;;;;;;16.02;11.73;;;;;;;13.16;100.00;100453.03;5011159;28;20022;-94
2023/08/05 01:10:05;;;;;;;17.90;11.30;;;;;;;13.15;100.00;100444.44;4995405;28;20014;-94
2023/08/05 01:12:31;;;;;;;17.15;11.70;;;;;;;13.17;100.00;100444.34;4995727;28;20045;-94
2023/08/05 01:14:56;;;;;;;28.30;13.07;;;;;;;13.14;100.00;100429.81;4994320;28;20101;-95
2023/08/05 01:17:21;;;;;;;22.35;13.90;;;;;;;13.12;100.00;100415.28;4994469;28;20062;-94
2023/08/05 01:19:47;;;;;;;15.95;11.98;;;;;;;13.10;100.00;100407.66;4994593;28;20432;-93
2023/08/05 01:22:41;;;;;;;21.08;12.30;;;;;;;13.20;100.00;100406.06;4995474;28;20030;-94
2023/08/05 01:25:27;;;;;;;19.73;12.52;;;;;;;13.17;100.00;100414.06;4995395;28;20058;-94
2023/08/05 01:27:53;;;;;;;18.35;11.65;;;;;;;13.26;100.00;100410.00;4995433;28;20066;-94
2023/08/05 01:30:23;;;;;;;19.35;11.80;;;;;;;13.24;100.00;100415.31;4995893;28;20053;-93
2023/08/05 01:32:50;;;;;;;16.98;10.88;;;;;;;13.24;100.00;100411.84;4994090;28;20025;-94
2023/08/05 01:35:17;;;;;;;22.70;11.27;;;;;;;13.32;100.00;100412.22;4993843;28;20026;-93
2023/08/05 01:37:43;;;;;;;24.02;13.80;;;;;;;13.19;100.00;100399.25;4995042;28;20041;-94
2023/08/05 01:40:09;;;;;;;20.38;12.02;;;;;;;13.11;100.00;100396.34;4994073;28;20117;-94
2023/08/05 01:42:34;;;;;;;18.52;11.90;;;;;;;13.08;100.00;100393.97;4995177;28;20128;-94
2023/08/05 01:44:59;;;;;;;19.63;11.48;;;;;;;13.08;100.00;100391.38;4993758;28;20661;-94
2023/08/05 01:47:25;;;;;;;21.20;12.25;;;;;;;13.21;100.00;100397.34;4993803;28;20030;-94
2023/08/05 01:49:50;;;;;;;19.83;12.35;;;;;;;13.14;100.00;100387.50;4994819;28;20053;-93
2023/08/05 01:52:15;;;;;;;18.73;12.38;;;;;;;13.09;100.00;100369.69;4995115;28;20034;-94
2023/08/05 01:54:41;;;;;;;17.75;11.38;;;;;;;13.13;100.00;100360.78;4994853;28;20026;-94
2023/08/05 01:57:06;;;;;;;20.00;12.35;;;;;;;13.16;100.00;100360.56;4993632;28;20025;-94
2023/08/05 01:59:32;;;;;;;24.80;13.88;;;;;;;13.11;100.00;100362.66;4993573;28;20519;-94
2023/08/05 02:01:57;;;;;;;20.20;13.00;;;;;;;13.13;100.00;100349.59;4993478;28;20022;-94
2023/08/05 02:04:22;;;;;;;21.70;12.55;;;;;;;13.13;100.00;100350.41;4994400;28;20027;-94
2023/08/05 02:06:48;;;;;;;20.77;12.07;;;;;;;13.19;100.00;100346.56;4994815;28;20026;-94
2023/08/05 02:09:13;;;;;;;23.35;13.23;;;;;;;13.17;100.00;100341.50;4994565;28;20038;-95
2023/08/05 02:11:38;;;;;;;26.23;14.05;;;;;;;13.04;100.00;100335.50;4993295;28;20366;-94
2023/08/05 02:14:04;;;;;;;26.17;13.25;;;;;;;13.08;100.00;100324.00;4993339;28;20057;-94
2023/08/05 02:16:32;;;;;;;19.52;13.15;;;;;;;13.16;100.00;100319.09;4993382;28;20039;-94
2023/08/05 02:18:57;;;;;;;24.88;14.30;;;;;;;12.94;100.00;100311.16;4993191;28;20113;-94
2023/08/05 02:21:23;;;;;;;17.20;13.15;;;;;;;12.94;100.00;100309.41;4994364;28;20465;-94
2023/08/05 02:23:48;;;;;;;18.73;13.50;;;;;;;12.96;100.00;100296.34;4994361;28;20022;-94
2023/08/05 02:26:14;;;;;;;20.92;12.93;;;;;;;12.97;100.00;100298.00;4993108;28;20030;-95
2023/08/05 02:28:39;;;;;;;19.70;13.07;;;;;;;12.92;100.00;100284.53;4994361;28;20503;-94
2023/08/05 02:31:04;;;;;;;18.83;13.65;;;;;;;12.98;100.00;100284.13;4994309;28;20026;-93
2023/08/05 02:33:30;;;;;;;21.60;12.82;;;;;;;12.93;100.00;100278.44;4992914;28;20038;-94
2023/08/05 02:35:59;;;;;;;19.65;13.07;;;;;;;12.94;100.00;100261.94;4994153;28;20492;-93
2023/08/05 02:38:24;;;;;;;19.77;13.10;;;;;;;12.89;100.00;100253.69;4994079;28;20042;-93
2023/08/05 02:40:49;;;;;;;16.73;13.07;;;;;;;12.94;100.00;100259.34;4993574;28;20026;-94
2023/08/05 02:43:15;;;;;;;20.83;13.45;;;;;;;13.01;100.00;100258.00;4994084;28;20026;-94
2023/08/05 02:45:41;;;;;;;27.00;12.98;;;;;;;12.93;100.00;100255.13;4993874;28;20049;-93
2023/08/05 02:48:07;;;;;;;22.90;13.77;;;;;;;12.87;100.00;100245.19;4992590;28;20035;-94
2023/08/05 02:50:32;;;;;;;20.50;13.15;;;;;;;12.93;100.00;100237.00;4992733;28;20446;-94
2023/08/05 02:52:58;;;;;;;17.30;12.40;;;;;;;12.92;100.00;100233.56;4993858;28;20085;-94
2023/08/05 02:55:23;;;;;;;19.38;13.88;;;;;;;12.98;100.00;100237.50;4992377;28;20378;-94
2023/08/05 02:57:48;;;;;;;21.05;13.07;;;;;;;12.93;100.00;100227.47;4993615;28;20029;-94
2023/08/05 03:00:14;;;;;;;16.90;13.05;;;;;;;12.99;100.00;100221.81;4993818;28;20045;-94
2023/08/05 03:02:39;;;;;;;19.10;12.80;;;;;;;12.91;100.00;100220.72;4993644;28;20050;-94
2023/08/05 03:05:05;;;;;;;20.45;13.45;;;;;;;12.84;100.00;100215.16;4992315;28;20026;-94
2023/08/05 03:07:30;;;;;;;22.63;13.95;;;;;;;12.82;100.00;100215.25;4992286;28;20441;-94
2023/08/05 03:09:55;;;;;;;25.77;14.30;;;;;;;12.72;100.00;100216.81;4992206;28;20018;-93
2023/08/05 03:12:21;;;;;;;23.05;13.35;;;;;;;12.63;100.00;100215.72;4993582;28;20488;-94
2023/08/05 03:14:46;;;;;;;19.88;13.50;;;;;;;12.77;100.00;100209.56;4992210;28;20424;-94
2023/08/05 03:17:11;;;;;;;20.08;14.10;;;;;;;12.75;100.00;100211.47;4993293;28;20026;-93
2023/08/05 03:19:37;;;;;;;20.70;13.95;;;;;;;12.65;100.00;100194.88;4993425;28;20409;-94
2023/08/05 03:22:03;;;;;;;21.45;13.57;;;;;;;12.70;100.00;100190.22;4992098;28;20064;-93
2023/08/05 03:24:28;;;;;;;22.92;15.30;;;;;;;12.60;100.00;100189.19;4993188;28;20094;-93
2023/08/05 03:26:53;;;;;;;24.38;14.73;;;;;;;12.55;100.00;100189.53;4991744;28;20033;-92
2023/08/05 03:29:19;;;;;;;31.92;15.65;;;;;;;12.55;100.00;100184.34;4991697;28;20031;-92
2023/08/05 03:31:44;;;;;;;24.48;15.10;;;;;;;12.50;100.00;100175.25;4993563;28;20475;-93
2023/08/05 03:34:09;;;;;;;26.42;16.48;;;;;;;12.43;100.00;100167.91;4991806;28;20415;-92
2023/08/05 03:36:36;;;;;;;24.83;15.98;;;;;;;12.38;100.00;100154.44;4992893;28;20046;-93
2023/08/05 03:39:02;;;;;;;31.15;16.50;;;;;;;12.30;100.00;100138.63;4992811;28;20026;-93
2023/08/05 03:41:27;;;;;;;30.17;17.35;;;;;;;12.30;100.00;100127.47;4992694;28;20022;-93
2023/08/05 03:43:53;;;;;;;25.25;15.88;;;;;;;12.25;100.00;100114.03;4992731;28;20448;-92
2023/08/05 03:46:18;;;;;;;29.90;17.23;;;;;;;12.26;100.00;100111.31;4993193;28;20027;-93
2023/08/05 03:48:44;;;;;;;24.25;15.55;;;;;;;12.23;100.00;100092.59;4991295;28;20026;-93
2023/08/05 03:51:09;;;;;;;31.42;15.63;;;;;;;12.13;100.00;100092.41;4992384;28;20532;-93
2023/08/05 03:53:35;;;;;;;22.95;15.00;;;;;;;12.21;100.00;100077.16;4991046;28;20053;-93
2023/08/05 03:56:01;;;;;;;27.40;15.48;;;;;;;12.22;100.00;100068.50;4991356;28;20031;-92
2023/08/05 03:58:26;;;;;;;29.35;16.35;;;;;;;12.14;100.00;100055.25;4991103;28;20030;-93
2023/08/05 04:00:52;;;;;;;33.25;18.17;;;;;;;12.13;100.00;100053.59;4992580;28;20026;-93
2023/08/05 04:03:17;;;;;;;30.25;17.05;;;;;;;12.13;100.00;100043.25;4991358;28;20489;-93
2023/08/05 04:05:43;;;;;;;23.80;15.40;;;;;;;12.19;100.00;100042.81;4991358;28;20481;-92
2023/08/05 04:08:08;;;;;;;26.08;16.33;;;;;;;12.09;100.00;100031.47;4991316;28;20033;-93
2023/08/05 04:10:35;;;;;;;29.67;16.17;;;;;;;12.14;100.00;100024.19;4991427;28;20105;-93
2023/08/05 04:13:03;;;;;;;27.67;16.92;;;;;;;12.18;100.00;100010.13;4992572;28;20030;-93
2023/08/05 04:15:30;;;;;;;26.20;17.08;;;;;;;12.17;100.00;99998.13;4992432;28;20025;-93
2023/08/05 04:17:59;;;;;;;27.85;16.00;;;;;;;12.10;100.00;99986.56;4991356;28;20026;-93
2023/08/05 04:20:25;;;;;;;26.42;15.77;;;;;;;12.12;100.00;99992.44;4990993;28;20030;-93
2023/08/05 04:22:50;;;;;;;26.80;15.18;;;;;;;12.09;100.00;99971.97;4992508;28;20034;-92
2023/08/05 04:25:16;;;;;;;26.35;16.50;;;;;;;12.10;100.00;99961.53;4992308;28;20054;-92
2023/08/05 04:27:41;;;;;;;27.00;16.35;;;;;;;12.11;100.00;99957.16;4992338;28;20023;-92
2023/08/05 04:30:07;;;;;;;31.20;16.77;;;;;;;12.11;100.00;99941.66;4990867;28;20026;-93
2023/08/05 04:32:33;;;;;;;29.13;15.27;;;;;;;12.11;100.00;99936.47;4992184;28;20022;-92
2023/08/05 04:34:59;;;;;;;26.05;15.95;;;;;;;12.10;100.00;99940.81;4992276;28;20030;-93
2023/08/05 04:37:24;;;;;;;26.17;14.63;;;;;;;12.05;100.00;99936.94;4990974;28;20547;-94
2023/08/05 04:39:49;;;;;;;24.98;14.77;;;;;;;12.01;100.00;99920.78;4990922;28;20429;-92
2023/08/05 04:42:15;;;;;;;21.05;14.35;;;;;;;11.90;100.00;99918.97;4992536;28;20029;-92
2023/08/05 04:44:41;;;;;;;22.67;14.05;;;;;;;11.85;100.00;99913.28;4991952;28;20025;-92
2023/08/05 04:47:11;;;;;;;25.95;12.70;;;;;;;11.70;100.00;99909.19;4990858;28;20509;-92
2023/08/05 04:49:38;;;;;;;24.10;12.40;;;;;;;11.67;100.00;99897.28;4991924;28;20030;-92
2023/08/05 04:52:06;;;;;;;25.42;15.65;;;;;;;11.67;100.00;99896.47;4990712;28;20030;-92
2023/08/05 04:54:44;;;;;;;24.08;14.25;;;;;;;11.66;100.00;99881.91;4991783;28;20043;-92
2023/08/05 04:57:11;;;;;;;22.55;13.45;;;;;;;11.60;100.00;99872.00;4991984;28;20035;-91
2023/08/05 04:59:36;;;;;;;23.50;13.07;;;;;;;11.64;100.00;99865.69;4991859;28;20085;-92
2023/08/05 05:02:02;;;;;;;23.92;13.25;;;;;;;11.66;100.00;99856.06;4990626;28;20027;-92
2023/08/05 05:04:27;;;;;;;22.00;13.20;;;;;;;11.55;100.00;99852.47;4994709;28;20077;-91
2023/08/05 05:06:52;;;;;;;22.67;13.13;;;;;;;11.52;100.00;99842.34;4995551;28;20117;-91
2023/08/05 05:09:18;;;;;;;20.48;12.52;;;;;;;11.62;100.00;99826.19;4994531;28;20022;-91
2023/08/05 05:11:43;;;;;;;20.83;12.05;;;;;;;11.79;100.00;99820.63;4995647;28;20026;-91
2023/08/05 05:14:08;;;;;;;20.33;11.98;;;;;;;11.75;100.00;99821.78;4995286;28;20485;-92
2023/08/05 05:16:34;;;;;;;19.10;11.93;;;;;;;11.85;100.00;99803.84;4994174;28;20038;-91
2023/08/05 05:18:59;;;;;;;21.27;12.23;;;;;;;11.72;100.00;99796.16;4995561;28;20488;-92
2023/08/05 05:21:24;;;;;;;19.30;12.02;;;;;;;11.69;100.00;99786.84;4995309;28;20026;-92
2023/08/05 05:23:50;;;;;;;21.92;12.75;;;;;;;11.64;100.00;99783.78;4995502;28;20134;-92
2023/08/05 05:26:15;;;;;;;20.10;13.23;;;;;;;11.66;100.00;99770.75;4995193;28;20030;-92
2023/08/05 05:28:41;;;;;;;25.13;14.20;;;;;;;11.73;100.00;99761.63;4995302;28;20116;-91
2023/08/05 05:31:06;;;;;;;27.90;13.18;;;;;;;11.75;100.00;99746.81;4994064;28;20113;-91
2023/08/05 05:33:32;;;;;;;24.75;13.40;;;;;;;11.69;100.00;99713.66;4994980;28;20030;-91
2023/08/05 05:35:57;;;;;;;28.48;14.32;;;;;;;11.70;100.00;99699.78;4995177;28;20469;-92
2023/08/05 05:38:23;;;;;;;22.60;13.55;;;;;;;11.57;100.00;99692.13;4994879;28;20037;-91
2023/08/05 05:40:48;;;;;;;33.45;14.82;;;;;;;11.46;100.00;99669.66;4993890;28;20027;-91
2023/08/05 05:43:13;;;;;;;26.92;13.48;;;;;;;11.53;100.00;99651.91;4994861;28;20053;-91
2023/08/05 05:45:39;;;;;;;25.05;13.90;;;;;;;11.55;100.00;99614.69;4995268;28;20113;-92
2023/08/05 05:48:05;;;;;;;23.73;13.45;;;;;;;11.56;100.00;99590.50;4995054;28;20033;-91
2023/08/05 05:50:30;;;;;;;28.00;14.15;;;;;;;11.54;100.00;99576.88;4994935;28;20475;-92
2023/08/05 05:52:56;;;;;;;25.05;12.57;;;;;;;11.42;100.00;99572.63;4993337;28;20018;-91
2023/08/05 05:55:21;;;;;;;22.15;12.73;;;;;;;11.42;100.00;99567.47;4994753;28;20227;-91
2023/08/05 05:57:48;;;;;;;22.20;12.02;;;;;;;11.44;100.00;99557.84;4994468;28;20022;-91
2023/08/05 06:00:14;;;;;;;17.60;10.80;;;;;;;11.55;100.00;99546.69;4994672;28;20491;-91
2023/08/05 06:02:40;;;;;;;20.20;12.00;;;;;;;11.62;100.00;99558.19;4994619;28;20033;-91
2023/08/05 06:05:07;;;;;;;18.58;11.18;;;;;;;11.60;100.00;99556.66;4993178;28;20485;-90
2023/08/05 06:07:32;;;;;;;22.70;10.75;;;;;;;11.51;100.00;99559.03;4994300;28;20026;-91
2023/08/05 06:09:58;;;;;;;21.38;9.77;;;;;;;11.51;100.00;99561.59;4994495;28;20072;-91
2023/08/05 06:12:27;;;;;;;16.67;9.80;;;;;;;11.53;100.00;99564.91;4994530;28;20026;-89
2023/08/05 06:14:53;;;;;;;16.80;9.27;;;;;;;11.57;100.00;99568.06;4993562;28;20026;-90
2023/08/05 06:17:18;;;;;;;14.82;7.85;;;;;;;11.60;100.00;99560.06;4994336;28;20022;-90
2023/08/05 06:19:44;;;;;;;14.75;7.32;;;;;;;11.56;100.00;99559.50;4993008;28;20030;-92
2023/08/05 06:22:09;;;;;;;12.27;6.25;;;;;;;11.54;100.00;99543.28;4994274;28;20034;-92
2023/08/05 06:24:34;;;;;;;13.10;6.05;;;;;;;11.57;100.00;99540.44;4992930;28;20070;-90
2023/08/05 06:27:00;;;;;;;11.23;5.90;;;;;;;11.63;100.00;99546.09;4993996;28;20076;-91
2023/08/05 06:29:25;;;;;;;9.63;4.88;;;;;;;11.69;100.00;99550.81;4994175;28;20034;-91
2023/08/05 06:31:50;;;;;;;9.40;4.78;;;;;;;11.72;100.00;99545.41;4994220;28;20034;-91
2023/08/05 06:34:16;;;;;;;9.25;4.25;;;;;;;11.75;100.00;99547.75;4993957;28;20034;-90
2023/08/05 06:36:41;;;;;;;13.30;4.00;;;;;;;11.75;100.00;99532.22;4993994;28;20473;-91
2023/08/05 06:39:06;;;;;;;5.68;2.78;;;;;;;11.77;100.00;99520.00;4992528;28;20033;-91
2023/08/05 06:41:32;;;;;;;6.85;2.83;;;;;;;11.84;100.00;99507.44;4992384;28;20038;-92
2023/08/05 06:43:57;;;;;;;5.13;2.75;;;;;;;11.82;100.00;99492.03;4992711;28;20027;-91
2023/08/05 06:46:22;;;;;;;2.92;2.00;;;;;;;11.86;100.00;99493.44;4994311;28;20023;-90
2023/08/05 06:48:48;;;;;;;10.25;1.95;;;;;;;11.93;100.00;99502.41;4993715;28;20033;-91
2023/08/05 06:51:13;;;;;;;4.53;2.35;;;;;;;11.96;100.00;99486.66;4993484;28;20536;-90
2023/08/05 06:53:42;;;;;;;2.88;1.90;;;;;;;12.02;100.00;99475.00;4993556;28;20022;-91
2023/08/05 06:56:08;;;;;;;2.53;1.60;;;;;;;12.05;100.00;99461.84;4994098;28;20433;-90
2023/08/05 06:58:33;;;;;;;6.22;1.50;;;;;;;12.12;100.00;99467.31;4993495;28;20060;-90
2023/08/05 07:00:58;;;;;;;3.75;1.55;;;;;;;12.15;100.00;99465.31;4993650;28;20432;-91
2023/08/05 07:03:24;;;;;;;8.10;1.70;;;;;;;12.21;100.00;99461.41;4993521;28;20026;-91
2023/08/05 07:05:54;;;;;;;2.45;1.90;;;;;;;12.25;100.00;99455.06;4993478;28;20027;-90
2023/08/05 07:08:22;;;;;;;2.17;1.10;;;;;;;12.28;100.00;99448.81;4992576;28;20038;-91
2023/08/05 07:10:56;;;;;;;2.17;1.15;;;;;;;12.35;100.00;99435.25;4993700;28;20034;-90
2023/08/05 07:13:21;;;;;;;1.95;0.93;;;;;;;12.38;100.00;99436.78;4993510;28;20089;-91
2023/08/05 07:15:46;;;;;;;1.50;0.80;;;;;;;12.46;100.00;99425.81;4993572;28;20841;-90
2023/08/05 07:18:12;;;;;;;1.10;0.68;;;;;;;12.47;100.00;99415.34;4993242;28;20058;-90
2023/08/05 07:20:40;;;;;;;1.48;0.57;;;;;;;12.46;100.00;99410.28;4993646;28;20477;-90
2023/08/05 07:23:05;;;;;;;1.05;0.63;;;;;;;12.55;100.00;99401.75;4993407;28;20105;-90
2023/08/05 07:25:31;;;;;;;1.00;0.40;;;;;;;12.54;100.00;99400.94;4993627;28;20053;-90
2023/08/05 07:27:56;;;;;;;4.10;0.40;;;;;;;12.59;100.00;99392.81;4992274;28;20022;-89
2023/08/05 07:30:21;;;;;;;2.45;0.47;;;;;;;12.60;100.00;99376.31;4993320;28;20033;-90
2023/08/05 07:32:47;;;;;;;0.50;0.30;;;;;;;12.64;100.00;99360.41;4992278;28;20048;-90
2023/08/05 07:35:14;;;;;;;0.73;0.25;;;;;;;12.72;100.00;99357.19;4993587;28;20535;-90
2023/08/05 07:37:42;;;;;;;1.27;0.30;;;;;;;12.77;100.00;99352.44;4992964;28;20034;-90
2023/08/05 07:40:12;;;;;;;0.17;0.10;;;;;;;12.74;100.00;99344.94;4991862;28;20027;-90
2023/08/05 07:42:38;;;;;;;0.55;0.30;;;;;;;12.75;100.00;99335.38;4991698;28;20050;-89
2023/08/05 07:45:07;;;;;;;4.20;0.40;;;;;;;12.79;100.00;99339.38;4991970;28;20044;-90
2023/08/05 07:47:39;;;;;;;0.73;0.30;;;;;;;12.82;100.00;99329.56;4991746;28;20027;-91
2023/08/05 07:50:06;;;;;;;0.32;0.20;;;;;;;12.82;100.00;99324.38;4992761;28;20480;-90
2023/08/05 07:52:31;;;;;;;3.80;0.28;;;;;;;12.87;100.00;99318.81;4992800;28;20070;-91
2023/08/05 07:54:58;;;;;;;0.90;0.20;;;;;;;12.91;100.00;99307.25;4991763;28;20424;-90
2023/08/05 07:57:24;;;;;;;0.40;0.20;;;;;;;12.98;100.00;99304.97;4992577;28;20023;-90
2023/08/05 07:59:51;;;;;;;1.02;0.32;;;;;;;13.05;100.00;99293.13;4992573;28;20033;-90
2023/08/05 08:02:16;;;;;;;0.40;0.10;;;;;;;13.10;100.00;99288.38;4992686;28;20029;-90
2023/08/05 08:04:43;;;;;;;0.22;0.10;;;;;;;13.13;100.00;99282.09;4992588;28;20019;-90
2023/08/05 08:07:09;;;;;;;0.10;0.03;;;;;;;13.14;100.00;99266.41;4992553;28;20023;-90
2023/08/05 08:09:34;;;;;;;0.30;0.10;;;;;;;13.20;100.00;99258.09;4992497;28;20081;-91
2023/08/05 08:12:00;;;;;;;0.40;0.20;;;;;;;13.26;100.00;99252.41;4992576;28;20033;-90
2023/08/05 08:14:25;;;;;;;0.52;0.20;;;;;;;13.35;100.00;99247.38;4992564;28;20026;-91
2023/08/05 08:16:50;;;;;;;0.15;0.13;;;;;;;13.41;100.00;99255.44;4991330;28;20034;-90
2023/08/05 08:19:18;;;;;;;2.92;0.20;;;;;;;13.40;100.00;99242.63;4992291;28;20030;-90
2023/08/05 08:21:44;;;;;;;1.13;0.17;;;;;;;13.39;100.00;99236.63;4992494;28;20038;-90
2023/08/05 08:24:09;;;;;;;0.63;0.20;;;;;;;13.45;100.00;99235.25;4992263;28;20022;-90
2023/08/05 08:26:35;;;;;;;0.70;0.20;;;;;;;13.53;100.00;99231.97;4992522;28;20073;-90
2023/08/05 08:29:00;;;;;;;0.50;0.10;;;;;;;13.61;100.00;99235.53;4992671;28;20106;-91
2023/08/05 08:31:30;;;;;;;0.52;0.10;;;;;;;13.67;100.00;99224.59;4992198;28;20026;-90
2023/08/05 08:33:56;;;;;;;0.40;0.10;;;;;;;13.75;100.00;99228.28;4992725;28;20057;-91
2023/08/05 08:36:22;;;;;;;1.30;0.17;;;;;;;13.80;100.00;99218.31;4992324;28;20026;-90
2023/08/05 08:38:47;;;;;;;1.55;0.20;;;;;;;13.83;100.00;99221.47;4994597;28;20031;-90
2023/08/05 08:41:12;;;;;;;1.10;0.20;;;;;;;13.90;100.00;99219.94;4996392;28;20479;-90
2023/08/05 08:43:40;;;;;;;0.38;0.17;;;;;;;13.99;100.00;99213.09;4995928;28;20442;-91
2023/08/05 08:46:07;;;;;;;1.98;0.28;;;;;;;14.12;100.00;99218.00;4996170;28;20026;-91
2023/08/05 08:48:35;;;;;;;1.63;0.10;;;;;;;14.11;100.00;99209.38;4994791;28;20023;-90
2023/08/05 08:51:01;;;;;;;1.33;0.55;;;;;;;14.19;100.00;99197.47;4996493;28;20018;-91
2023/08/05 08:53:27;;;;;;;0.77;0.20;;;;;;;14.32;100.00;99200.56;4996127;28;20031;-91
2023/08/05 08:55:52;;;;;;;1.95;0.30;;;;;;;14.41;100.00;99191.94;4996001;28;20026;-90
2023/08/05 08:58:18;;;;;;;1.80;0.30;;;;;;;14.47;100.00;99188.75;4995794;28;20384;-91
2023/08/05 09:00:45;;;;;;;4.78;0.40;;;;;;;14.47;100.00;99186.16;4996203;28;20026;-90
2023/08/05 09:03:12;;;;;;;1.65;0.30;;;;;;;14.63;100.00;99185.56;4995741;28;20030;-91
2023/08/05 09:05:49;;;;;;;5.20;0.63;;;;;;;14.73;100.00;99169.94;4995733;28;20035;-91
2023/08/05 09:08:15;;;;;;;1.73;0.22;;;;;;;14.84;100.00;99174.91;4995895;28;20034;-91
2023/08/05 09:10:43;;;;;;;1.58;0.30;;;;;;;14.95;100.00;99174.72;4995769;28;20030;-91
2023/08/05 09:13:09;;;;;;;2.90;0.40;;;;;;;14.97;100.00;99167.59;4995557;28;20035;-90
2023/08/05 09:15:38;;;;;;;4.38;0.55;;;;;;;15.01;100.00;99162.91;4995463;28;20126;-91
2023/08/05 09:18:05;;;;;;;2.33;0.50;;;;;;;14.95;100.00;99161.72;4995514;28;20026;-91
2023/08/05 09:20:32;;;;;;;4.80;0.57;;;;;;;15.20;100.00;99161.94;4995719;28;20484;-90
2023/08/05 09:23:01;;;;;;;1.67;0.43;;;;;;;15.43;100.00;99156.28;4995466;28;20030;-91
2023/08/05 09:25:27;;;;;;;3.85;0.30;;;;;;;15.60;100.00;99153.63;4994108;28;20073;-91
2023/08/05 09:27:53;;;;;;;1.42;0.40;;;;;;;15.70;100.00;99150.97;4994103;28;20034;-91
2023/08/05 09:30:21;;;;;;;3.20;0.73;;;;;;;15.86;100.00;99152.06;4995155;28;20026;-91
2023/08/05 09:32:47;;;;;;;2.78;0.35;;;;;;;15.84;100.00;99152.22;4995252;28;20484;-91
2023/08/05 09:35:13;;;;;;;2.53;0.30;;;;;;;15.87;100.00;99144.09;4993955;28;20100;-90
2023/08/05 09:37:52;;;;;;;1.02;0.20;;;;;;;15.78;100.00;99139.81;4995197;28;20033;-91
2023/08/05 09:40:25;;;;;;;2.30;0.20;;;;;;;15.78;100.00;99140.63;4995241;28;20018;-90
2023/08/05 09:42:59;;;;;;;1.77;0.40;;;;;;;15.70;100.00;99122.34;4995064;28;20034;-91
2023/08/05 09:45:25;;;;;;;0.55;0.13;;;;;;;15.63;100.00;99121.34;4995047;28;20081;-90
2023/08/05 09:48:04;;;;;;;1.92;0.35;;;;;;;15.75;100.00;99127.09;4993674;28;20073;-90
2023/08/05 09:50:31;;;;;;;1.30;0.30;;;;;;;15.83;100.00;99127.16;4993498;28;20026;-91
2023/08/05 09:53:00;;;;;;;1.63;0.17;;;;;;;15.99;100.00;99126.44;4993780;28;20030;-90
2023/08/05 09:55:27;;;;;;;1.85;0.38;;;;;;;16.22;100.00;99118.91;4993695;28;20385;-90
2023/08/05 09:57:53;;;;;;;0.70;0.15;;;;;;;16.25;100.00;99110.78;4994655;28;20022;-90
2023/08/05 10:00:19;;;;;;;1.02;0.10;;;;;;;16.33;100.00;99112.59;4994895;28;20034;-90
2023/08/05 10:02:45;;;;;;;0.88;0.10;;;;;;;16.35;100.00;99116.66;4994743;28;20029;-90
2023/08/05 10:05:12;;;;;;;0.95;0.13;;;;;;;16.26;100.00;99117.59;4994729;28;20080;-90
2023/08/05 10:07:40;;;;;;;1.80;0.20;;;;;;;16.30;100.00;99112.91;4994792;28;20018;-90
2023/08/05 10:10:12;;;;;;;1.02;0.13;;;;;;;16.30;100.00;99112.91;4994571;28;20023;-90
2023/08/05 10:13:09;;;;;;;1.85;0.22;;;;;;;16.21;100.00;99112.84;4993435;28;20034;-90
2023/08/05 10:15:40;;;;;;;0.65;0.10;;;;;;;16.27;100.00;99119.25;4994034;28;20042;-90
2023/08/05 10:18:14;;;;;;;0.47;0.10;;;;;;;16.33;100.00;99120.41;4994317;28;20026;-90
2023/08/05 10:20:39;;;;;;;0.80;0.20;;;;;;;16.36;100.00;99112.25;4992980;28;20551;-90
2023/08/05 10:23:07;;;;;;;1.20;0.10;;;;;;;16.60;100.00;99112.31;4994388;28;20026;-90
2023/08/05 10:25:42;;;;;;;0.50;0.25;;;;;;;16.98;100.00;99115.38;4994249;28;20022;-90
2023/08/05 10:28:30;;;;;;;1.88;0.32;;;;;;;17.14;100.00;99106.72;4994482;28;20034;-89
2023/08/05 10:30:56;;;;;;;2.95;0.47;;;;;;;16.98;100.00;99094.50;4990346;28;20042;-90
2023/08/05 10:33:21;;;;;;;3.15;0.25;;;;;;;17.07;100.00;99093.53;4993930;28;20433;-90
2023/08/05 10:35:49;;;;;;;0.90;0.17;;;;;;;17.36;100.00;99100.03;4994215;28;20027;-90
2023/08/05 10:38:21;;;;;;;2.78;0.35;;;;;;;17.81;100.00;99087.44;4993906;28;20022;-91
2023/08/05 10:41:00;;;;;;;1.63;0.30;;;;;;;18.04;100.00;99090.13;4993803;28;20097;-91
2023/08/05 10:43:33;;;;;;;2.20;0.10;;;;;;;17.86;100.00;99091.16;4993882;28;20022;-91
2023/08/05 10:46:07;;;;;;;3.45;0.35;;;;;;;17.66;100.00;99085.50;4994109;28;20480;-92
2023/08/05 10:48:38;;;;;;;8.15;0.82;;;;;;;17.65;100.00;99088.25;4993738;28;20041;-91
2023/08/05 10:51:08;;;;;;;;;;;;;;;17.63;100.00;99092.81;4994303;28;20030;-91
2023/08/05 10:53:34;;;;;;;5.50;0.70;;;;;;;17.48;100.00;99093.53;4993459;28;19916;-92
2023/08/05 10:55:59;;;;;;;5.03;1.02;;;;;;;17.32;100.00;99090.94;4993684;28;20026;-91
2023/08/05 10:58:29;;;;;;;6.28;1.00;;;;;;;17.39;100.00;99084.06;4993518;28;20026;-91
2023/08/05 11:01:02;;;;;;;6.30;0.90;;;;;;;17.61;100.00;99086.97;4993097;28;20026;-90
2023/08/05 11:03:37;;;;;;;7.05;0.98;;;;;;;17.47;100.00;99086.66;4993425;28;20032;-91
2023/08/05 11:06:04;;;;;;;7.75;1.20;;;;;;;17.61;100.00;99090.41;4993305;28;20056;-91
2023/08/05 11:08:31;;;;;;;3.55;0.68;;;;;;;17.72;100.00;99089.22;4992309;28;20465;-91
2023/08/05 11:11:00;;;;;;;3.17;0.57;;;;;;;17.42;100.00;99088.94;4993404;28;20540;-90
2023/08/05 11:13:26;;;;;;;8.23;0.93;;;;;;;17.23;100.00;99087.50;4993364;28;20034;-90